sensor_id;sensor_type;location;lat;lon;timestamp;temperature;humidity
13472;DHT22;6808;49.444;11.034;2022-09-27T00:00:37;12.00;99.90
13472;DHT22;6808;49.444;11.034;2022-09-27T00:03:03;11.90;99.90
13472;DHT22;6808;49.444;11.034;2022-09-27T00:05:29;12.00;99.90
13472;DHT22;6808;49.444;11.034;2022-09-27T00:07:55;12.00;99.90
13472;DHT22;6808;49.444;11.034;2022-09-27T00:10:21;11.90;99.90
13472;DHT22;6808;49.444;11.034;2022-09-27T00:12:47;11.90;99.90
13472;DHT22;6808;49.444;11.034;2022-09-27T00:15:13;11.90;99.90
13472;DHT22;6808;49.444;11.034;2022-09-27T00:17:39;11.80;99.90
13472;DHT22;6808;49.444;11.034;2022-09-27T00:20:07;11.80;99.90
13472;DHT22;6808;49.444;11.034;2022-09-27T00:22:33;11.80;99.90
13472;DHT22;6808;49.444;11.034;2022-09-27T00:24:59;11.70;99.90
13472;DHT22;6808;49.444;11.034;2022-09-27T00:27:25;11.70;99.90
13472;DHT22;6808;49.444;11.034;2022-09-27T00:29:51;11.70;99.90
13472;DHT22;6808;49.444;11.034;2022-09-27T00:32:16;11.70;99.90
13472;DHT22;6808;49.444;11.034;2022-09-27T00:34:42;11.80;99.90
13472;DHT22;6808;49.444;11.034;2022-09-27T00:37:08;11.70;99.90
13472;DHT22;6808;49.444;11.034;2022-09-27T00:39:35;11.70;99.90
13472;DHT22;6808;49.444;11.034;2022-09-27T00:42:03;11.80;99.90
13472;DHT22;6808;49.444;11.034;2022-09-27T00:47:24;11.70;99.90
13472;DHT22;6808;49.444;11.034;2022-09-27T00:55:35;11.70;99.90
13472;DHT22;6808;49.444;11.034;2022-09-27T00:58:03;11.70;99.90
13472;DHT22;6808;49.444;11.034;2022-09-27T01:00:29;11.70;99.90
13472;DHT22;6808;49.444;11.034;2022-09-27T01:02:56;11.70;99.90
13472;DHT22;6808;49.444;11.034;2022-09-27T01:05:24;11.60;99.90
13472;DHT22;6808;49.444;11.034;2022-09-27T01:07:50;11.60;99.90
13472;DHT22;6808;49.444;11.034;2022-09-27T01:10:17;11.60;99.90
13472;DHT22;6808;49.444;11.034;2022-09-27T01:15:43;11.60;99.90
13472;DHT22;6808;49.444;11.034;2022-09-27T01:18:53;11.60;99.90
13472;DHT22;6808;49.444;11.034;2022-09-27T01:24:31;11.50;99.90
13472;DHT22;6808;49.444;11.034;2022-09-27T01:38:22;11.40;99.90
13472;DHT22;6808;49.444;11.034;2022-09-27T01:40:58;11.30;99.90
13472;DHT22;6808;49.444;11.034;2022-09-27T01:43:32;11.30;99.90
13472;DHT22;6808;49.444;11.034;2022-09-27T01:46:06;11.30;99.90
13472;DHT22;6808;49.444;11.034;2022-09-27T01:48:36;11.30;99.90
13472;DHT22;6808;49.444;11.034;2022-09-27T01:51:12;11.20;99.90
13472;DHT22;6808;49.444;11.034;2022-09-27T01:53:42;11.20;99.90
13472;DHT22;6808;49.444;11.034;2022-09-27T01:56:14;11.20;99.90
13472;DHT22;6808;49.444;11.034;2022-09-27T01:58:52;11.20;99.90
13472;DHT22;6808;49.444;11.034;2022-09-27T02:01:21;11.30;99.90
13472;DHT22;6808;49.444;11.034;2022-09-27T02:03:50;11.20;99.90
13472;DHT22;6808;49.444;11.034;2022-09-27T02:06:29;11.20;99.90
13472;DHT22;6808;49.444;11.034;2022-09-27T02:11:26;11.20;99.90
13472;DHT22;6808;49.444;11.034;2022-09-27T02:17:14;11.20;99.90
13472;DHT22;6808;49.444;11.034;2022-09-27T02:20:26;11.20;99.90
13472;DHT22;6808;49.444;11.034;2022-09-27T02:22:37;11.20;99.90
13472;DHT22;6808;49.444;11.034;2022-09-27T02:25:12;11.20;99.90
13472;DHT22;6808;49.444;11.034;2022-09-27T02:28:47;11.30;99.90
13472;DHT22;6808;49.444;11.034;2022-09-27T02:30:46;11.20;99.90
13472;DHT22;6808;49.444;11.034;2022-09-27T02:33:12;11.20;99.90
13472;DHT22;6808;49.444;11.034;2022-09-27T02:35:37;11.10;99.90
13472;DHT22;6808;49.444;11.034;2022-09-27T02:38:04;11.10;99.90
13472;DHT22;6808;49.444;11.034;2022-09-27T02:40:35;11.10;99.90
13472;DHT22;6808;49.444;11.034;2022-09-27T02:43:06;11.10;99.90
13472;DHT22;6808;49.444;11.034;2022-09-27T02:50:56;11.00;99.90
13472;DHT22;6808;49.444;11.034;2022-09-27T03:02:34;10.90;99.90
13472;DHT22;6808;49.444;11.034;2022-09-27T03:05:07;10.90;99.90
13472;DHT22;6808;49.444;11.034;2022-09-27T03:07:34;11.00;99.90
13472;DHT22;6808;49.444;11.034;2022-09-27T03:10:00;11.00;99.90
13472;DHT22;6808;49.444;11.034;2022-09-27T03:12:26;11.00;99.90
13472;DHT22;6808;49.444;11.034;2022-09-27T03:14:57;11.00;99.90
13472;DHT22;6808;49.444;11.034;2022-09-27T03:17:23;10.90;99.90
13472;DHT22;6808;49.444;11.034;2022-09-27T03:19:49;10.90;99.90
13472;DHT22;6808;49.444;11.034;2022-09-27T03:22:14;11.00;99.90
13472;DHT22;6808;49.444;11.034;2022-09-27T03:24:40;11.00;99.90
13472;DHT22;6808;49.444;11.034;2022-09-27T03:27:06;10.90;99.90
13472;DHT22;6808;49.444;11.034;2022-09-27T03:29:31;10.90;99.90
13472;DHT22;6808;49.444;11.034;2022-09-27T03:31:57;10.90;99.90
13472;DHT22;6808;49.444;11.034;2022-09-27T03:34:22;10.90;99.90
13472;DHT22;6808;49.444;11.034;2022-09-27T03:36:48;10.90;99.90
13472;DHT22;6808;49.444;11.034;2022-09-27T03:39:14;10.90;99.90
13472;DHT22;6808;49.444;11.034;2022-09-27T03:41:40;10.80;99.90
13472;DHT22;6808;49.444;11.034;2022-09-27T03:44:06;10.80;99.90
13472;DHT22;6808;49.444;11.034;2022-09-27T03:46:32;10.80;99.90
13472;DHT22;6808;49.444;11.034;2022-09-27T03:48:58;10.80;99.90
13472;DHT22;6808;49.444;11.034;2022-09-27T03:51:23;10.80;99.90
13472;DHT22;6808;49.444;11.034;2022-09-27T03:53:49;10.80;99.90
13472;DHT22;6808;49.444;11.034;2022-09-27T03:56:15;10.80;99.90
13472;DHT22;6808;49.444;11.034;2022-09-27T03:58:41;10.80;99.90
13472;DHT22;6808;49.444;11.034;2022-09-27T04:01:06;10.80;99.90
13472;DHT22;6808;49.444;11.034;2022-09-27T04:03:32;10.80;99.90
13472;DHT22;6808;49.444;11.034;2022-09-27T04:05:57;10.80;99.90
13472;DHT22;6808;49.444;11.034;2022-09-27T04:08:24;10.80;99.90
13472;DHT22;6808;49.444;11.034;2022-09-27T04:10:50;10.80;99.90
13472;DHT22;6808;49.444;11.034;2022-09-27T04:13:16;10.80;99.90
13472;DHT22;6808;49.444;11.034;2022-09-27T04:15:42;10.80;99.90
13472;DHT22;6808;49.444;11.034;2022-09-27T04:18:07;10.80;99.90
13472;DHT22;6808;49.444;11.034;2022-09-27T04:20:34;10.70;99.90
13472;DHT22;6808;49.444;11.034;2022-09-27T04:23:00;10.70;99.90
13472;DHT22;6808;49.444;11.034;2022-09-27T04:25:26;10.70;99.90
13472;DHT22;6808;49.444;11.034;2022-09-27T04:27:52;10.70;99.90
13472;DHT22;6808;49.444;11.034;2022-09-27T04:30:19;10.80;99.90
13472;DHT22;6808;49.444;11.034;2022-09-27T04:32:45;10.70;99.90
13472;DHT22;6808;49.444;11.034;2022-09-27T04:35:12;10.70;99.90
13472;DHT22;6808;49.444;11.034;2022-09-27T04:37:56;10.70;99.90
13472;DHT22;6808;49.444;11.034;2022-09-27T04:40:22;10.70;99.90
13472;DHT22;6808;49.444;11.034;2022-09-27T04:42:49;10.80;99.90
13472;DHT22;6808;49.444;11.034;2022-09-27T04:45:15;10.70;99.90
13472;DHT22;6808;49.444;11.034;2022-09-27T04:47:46;10.70;99.90
13472;DHT22;6808;49.444;11.034;2022-09-27T04:50:12;10.70;99.90
13472;DHT22;6808;49.444;11.034;2022-09-27T04:52:38;10.60;99.90
13472;DHT22;6808;49.444;11.034;2022-09-27T04:55:05;10.50;99.90
13472;DHT22;6808;49.444;11.034;2022-09-27T04:57:31;10.50;99.90
13472;DHT22;6808;49.444;11.034;2022-09-27T04:59:57;10.40;99.90
13472;DHT22;6808;49.444;11.034;2022-09-27T05:02:27;10.40;99.90
13472;DHT22;6808;49.444;11.034;2022-09-27T05:04:53;10.40;99.90
13472;DHT22;6808;49.444;11.034;2022-09-27T05:07:24;10.30;99.90
13472;DHT22;6808;49.444;11.034;2022-09-27T05:09:50;10.30;99.90
13472;DHT22;6808;49.444;11.034;2022-09-27T05:12:15;10.30;99.90
13472;DHT22;6808;49.444;11.034;2022-09-27T05:14:41;10.30;99.90
13472;DHT22;6808;49.444;11.034;2022-09-27T05:17:06;10.40;99.90
13472;DHT22;6808;49.444;11.034;2022-09-27T05:19:33;10.40;99.90
13472;DHT22;6808;49.444;11.034;2022-09-27T05:21:58;10.30;99.90
13472;DHT22;6808;49.444;11.034;2022-09-27T05:24:24;10.30;99.90
13472;DHT22;6808;49.444;11.034;2022-09-27T05:26:52;10.30;99.90
13472;DHT22;6808;49.444;11.034;2022-09-27T05:29:18;10.30;99.90
13472;DHT22;6808;49.444;11.034;2022-09-27T05:31:44;10.30;99.90
13472;DHT22;6808;49.444;11.034;2022-09-27T05:34:09;10.40;99.90
13472;DHT22;6808;49.444;11.034;2022-09-27T05:36:36;10.30;99.90
13472;DHT22;6808;49.444;11.034;2022-09-27T05:39:02;10.40;99.90
13472;DHT22;6808;49.444;11.034;2022-09-27T05:41:28;10.40;99.90
13472;DHT22;6808;49.444;11.034;2022-09-27T05:43:54;10.40;99.90
13472;DHT22;6808;49.444;11.034;2022-09-27T05:46:20;10.30;99.90
13472;DHT22;6808;49.444;11.034;2022-09-27T05:48:45;10.30;99.90
13472;DHT22;6808;49.444;11.034;2022-09-27T05:51:11;10.30;99.90
13472;DHT22;6808;49.444;11.034;2022-09-27T05:53:37;10.20;99.90
13472;DHT22;6808;49.444;11.034;2022-09-27T05:56:03;10.10;99.90
13472;DHT22;6808;49.444;11.034;2022-09-27T05:58:29;10.10;99.90
13472;DHT22;6808;49.444;11.034;2022-09-27T06:00:55;10.10;99.90
13472;DHT22;6808;49.444;11.034;2022-09-27T06:03:20;10.20;99.90
13472;DHT22;6808;49.444;11.034;2022-09-27T06:05:46;10.20;99.90
13472;DHT22;6808;49.444;11.034;2022-09-27T06:08:12;10.20;99.90
13472;DHT22;6808;49.444;11.034;2022-09-27T06:10:39;10.30;99.90
13472;DHT22;6808;49.444;11.034;2022-09-27T06:13:15;10.20;99.90
13472;DHT22;6808;49.444;11.034;2022-09-27T06:15:43;10.30;99.90
13472;DHT22;6808;49.444;11.034;2022-09-27T06:18:11;10.30;99.90
13472;DHT22;6808;49.444;11.034;2022-09-27T06:20:38;10.20;99.90
13472;DHT22;6808;49.444;11.034;2022-09-27T06:23:08;10.30;99.90
13472;DHT22;6808;49.444;11.034;2022-09-27T06:25:35;10.20;99.90
13472;DHT22;6808;49.444;11.034;2022-09-27T06:28:01;10.30;99.90
13472;DHT22;6808;49.444;11.034;2022-09-27T06:30:27;10.30;99.90
13472;DHT22;6808;49.444;11.034;2022-09-27T06:33:00;10.20;99.90
13472;DHT22;6808;49.444;11.034;2022-09-27T06:35:27;10.30;99.90
13472;DHT22;6808;49.444;11.034;2022-09-27T06:37:53;10.30;99.90
13472;DHT22;6808;49.444;11.034;2022-09-27T06:40:20;10.30;99.90
13472;DHT22;6808;49.444;11.034;2022-09-27T06:42:47;10.20;99.90
13472;DHT22;6808;49.444;11.034;2022-09-27T06:45:13;10.30;99.90
13472;DHT22;6808;49.444;11.034;2022-09-27T06:47:39;10.30;99.90
13472;DHT22;6808;49.444;11.034;2022-09-27T06:50:05;10.30;99.90
13472;DHT22;6808;49.444;11.034;2022-09-27T06:52:31;10.20;99.90
13472;DHT22;6808;49.444;11.034;2022-09-27T06:54:57;10.20;99.90
13472;DHT22;6808;49.444;11.034;2022-09-27T06:57:22;10.20;99.90
13472;DHT22;6808;49.444;11.034;2022-09-27T07:00:09;10.20;99.90
13472;DHT22;6808;49.444;11.034;2022-09-27T07:02:54;10.20;99.90
13472;DHT22;6808;49.444;11.034;2022-09-27T07:05:27;10.20;99.90
13472;DHT22;6808;49.444;11.034;2022-09-27T07:07:56;10.20;99.90
13472;DHT22;6808;49.444;11.034;2022-09-27T07:10:27;10.20;99.90
13472;DHT22;6808;49.444;11.034;2022-09-27T07:12:53;10.30;99.90
13472;DHT22;6808;49.444;11.034;2022-09-27T07:15:19;10.10;99.90
13472;DHT22;6808;49.444;11.034;2022-09-27T07:17:56;10.10;99.90
13472;DHT22;6808;49.444;11.034;2022-09-27T07:20:25;10.10;99.90
13472;DHT22;6808;49.444;11.034;2022-09-27T07:22:51;10.10;99.90
13472;DHT22;6808;49.444;11.034;2022-09-27T07:25:18;10.10;99.90
13472;DHT22;6808;49.444;11.034;2022-09-27T07:27:44;10.10;99.90
13472;DHT22;6808;49.444;11.034;2022-09-27T07:30:10;10.10;99.90
13472;DHT22;6808;49.444;11.034;2022-09-27T07:32:37;10.20;99.90
13472;DHT22;6808;49.444;11.034;2022-09-27T07:35:04;10.10;99.90
13472;DHT22;6808;49.444;11.034;2022-09-27T07:37:34;10.20;99.90
13472;DHT22;6808;49.444;11.034;2022-09-27T07:40:01;10.30;99.90
13472;DHT22;6808;49.444;11.034;2022-09-27T07:42:27;10.20;99.90
13472;DHT22;6808;49.444;11.034;2022-09-27T07:44:54;10.30;99.90
13472;DHT22;6808;49.444;11.034;2022-09-27T07:47:21;10.30;99.90
13472;DHT22;6808;49.444;11.034;2022-09-27T07:49:49;10.30;99.90
13472;DHT22;6808;49.444;11.034;2022-09-27T07:52:14;10.30;99.90
13472;DHT22;6808;49.444;11.034;2022-09-27T07:54:40;10.40;99.90
13472;DHT22;6808;49.444;11.034;2022-09-27T07:57:06;10.40;99.90
13472;DHT22;6808;49.444;11.034;2022-09-27T07:59:31;10.40;99.90
13472;DHT22;6808;49.444;11.034;2022-09-27T08:01:57;10.30;99.90
13472;DHT22;6808;49.444;11.034;2022-09-27T08:04:22;10.30;99.90
13472;DHT22;6808;49.444;11.034;2022-09-27T08:06:48;10.30;99.90
13472;DHT22;6808;49.444;11.034;2022-09-27T08:09:13;10.30;99.90
13472;DHT22;6808;49.444;11.034;2022-09-27T08:11:39;10.30;99.90
13472;DHT22;6808;49.444;11.034;2022-09-27T08:14:04;10.40;99.90
13472;DHT22;6808;49.444;11.034;2022-09-27T08:16:32;10.50;99.90
13472;DHT22;6808;49.444;11.034;2022-09-27T08:18:58;10.50;99.90
13472;DHT22;6808;49.444;11.034;2022-09-27T08:21:24;10.70;99.90
13472;DHT22;6808;49.444;11.034;2022-09-27T08:23:49;10.70;99.90
13472;DHT22;6808;49.444;11.034;2022-09-27T08:26:15;10.80;99.90
13472;DHT22;6808;49.444;11.034;2022-09-27T08:28:40;10.90;99.90
13472;DHT22;6808;49.444;11.034;2022-09-27T08:31:06;11.20;99.90
13472;DHT22;6808;49.444;11.034;2022-09-27T08:33:31;11.20;99.90
13472;DHT22;6808;49.444;11.034;2022-09-27T08:35:57;11.30;99.90
13472;DHT22;6808;49.444;11.034;2022-09-27T08:38:22;11.30;99.90
13472;DHT22;6808;49.444;11.034;2022-09-27T08:40:58;11.30;99.90
13472;DHT22;6808;49.444;11.034;2022-09-27T08:48:34;11.30;99.90
13472;DHT22;6808;49.444;11.034;2022-09-27T08:51:02;11.40;99.90
13472;DHT22;6808;49.444;11.034;2022-09-27T08:54:12;11.40;99.90
13472;DHT22;6808;49.444;11.034;2022-09-27T08:56:39;11.50;99.90
13472;DHT22;6808;49.444;11.034;2022-09-27T08:59:27;11.50;99.90
13472;DHT22;6808;49.444;11.034;2022-09-27T09:01:54;11.50;99.90
13472;DHT22;6808;49.444;11.034;2022-09-27T09:04:26;11.30;99.90
13472;DHT22;6808;49.444;11.034;2022-09-27T09:07:17;11.30;99.90
13472;DHT22;6808;49.444;11.034;2022-09-27T09:09:52;11.30;99.90
13472;DHT22;6808;49.444;11.034;2022-09-27T09:12:46;11.30;99.90
13472;DHT22;6808;49.444;11.034;2022-09-27T09:15:43;11.30;99.90
13472;DHT22;6808;49.444;11.034;2022-09-27T09:24:52;11.00;99.90
13472;DHT22;6808;49.444;11.034;2022-09-27T09:27:29;10.90;99.90
13472;DHT22;6808;49.444;11.034;2022-09-27T09:30:22;10.80;99.90
13472;DHT22;6808;49.444;11.034;2022-09-27T09:35:26;10.90;99.90
13472;DHT22;6808;49.444;11.034;2022-09-27T09:37:59;10.80;99.90
13472;DHT22;6808;49.444;11.034;2022-09-27T09:40:40;10.90;99.90
13472;DHT22;6808;49.444;11.034;2022-09-27T09:43:14;11.00;99.90
13472;DHT22;6808;49.444;11.034;2022-09-27T09:45:56;11.10;99.90
13472;DHT22;6808;49.444;11.034;2022-09-27T09:48:47;11.10;99.90
13472;DHT22;6808;49.444;11.034;2022-09-27T09:51:27;11.20;99.90
13472;DHT22;6808;49.444;11.034;2022-09-27T09:56:33;11.10;99.90
13472;DHT22;6808;49.444;11.034;2022-09-27T09:59:58;11.00;99.90
13472;DHT22;6808;49.444;11.034;2022-09-27T10:02:34;11.00;99.90
13472;DHT22;6808;49.444;11.034;2022-09-27T10:05:02;10.90;99.90
13472;DHT22;6808;49.444;11.034;2022-09-27T10:07:28;10.90;99.90
13472;DHT22;6808;49.444;11.034;2022-09-27T10:09:59;10.80;99.90
13472;DHT22;6808;49.444;11.034;2022-09-27T10:12:25;10.90;99.90
13472;DHT22;6808;49.444;11.034;2022-09-27T10:14:53;10.80;99.90
13472;DHT22;6808;49.444;11.034;2022-09-27T10:17:23;10.80;99.90
13472;DHT22;6808;49.444;11.034;2022-09-27T10:19:50;10.80;99.90
13472;DHT22;6808;49.444;11.034;2022-09-27T10:22:30;10.90;99.90
13472;DHT22;6808;49.444;11.034;2022-09-27T10:25:00;11.00;99.90
13472;DHT22;6808;49.444;11.034;2022-09-27T10:27:42;11.10;99.90
13472;DHT22;6808;49.444;11.034;2022-09-27T10:30:23;11.10;99.90
13472;DHT22;6808;49.444;11.034;2022-09-27T10:32:52;11.00;99.90
13472;DHT22;6808;49.444;11.034;2022-09-27T10:35:33;10.90;99.90
13472;DHT22;6808;49.444;11.034;2022-09-27T10:38:22;10.80;99.90
13472;DHT22;6808;49.444;11.034;2022-09-27T10:40:53;10.80;99.90
13472;DHT22;6808;49.444;11.034;2022-09-27T10:43:30;10.90;99.90
13472;DHT22;6808;49.444;11.034;2022-09-27T10:46:08;10.80;99.90
13472;DHT22;6808;49.444;11.034;2022-09-27T10:48:37;10.80;99.90
13472;DHT22;6808;49.444;11.034;2022-09-27T10:51:07;10.80;99.90
13472;DHT22;6808;49.444;11.034;2022-09-27T10:53:45;10.80;99.90
13472;DHT22;6808;49.444;11.034;2022-09-27T10:56:28;10.70;99.90
13472;DHT22;6808;49.444;11.034;2022-09-27T10:58:54;10.70;99.90
13472;DHT22;6808;49.444;11.034;2022-09-27T11:01:20;10.60;99.90
13472;DHT22;6808;49.444;11.034;2022-09-27T11:03:56;10.60;99.90
13472;DHT22;6808;49.444;11.034;2022-09-27T11:08:51;10.60;99.90
13472;DHT22;6808;49.444;11.034;2022-09-27T11:11:21;10.60;99.90
13472;DHT22;6808;49.444;11.034;2022-09-27T11:16:58;10.50;99.90
13472;DHT22;6808;49.444;11.034;2022-09-27T11:29:59;10.70;99.90
13472;DHT22;6808;49.444;11.034;2022-09-27T11:46:17;10.60;99.90
13472;DHT22;6808;49.444;11.034;2022-09-27T11:49:21;10.90;99.90
13472;DHT22;6808;49.444;11.034;2022-09-27T11:51:29;11.20;99.90
13472;DHT22;6808;49.444;11.034;2022-09-27T11:54:11;11.50;99.90
13472;DHT22;6808;49.444;11.034;2022-09-27T11:57:05;11.60;99.90
13472;DHT22;6808;49.444;11.034;2022-09-27T12:02:28;11.70;99.90
13472;DHT22;6808;49.444;11.034;2022-09-27T12:10:22;11.30;99.90
13472;DHT22;6808;49.444;11.034;2022-09-27T12:12:56;11.30;99.90
13472;DHT22;6808;49.444;11.034;2022-09-27T12:15:26;11.20;99.90
13472;DHT22;6808;49.444;11.034;2022-09-27T12:20:33;11.10;99.90
13472;DHT22;6808;49.444;11.034;2022-09-27T12:23:02;10.90;99.90
13472;DHT22;6808;49.444;11.034;2022-09-27T12:25:33;11.00;99.90
13472;DHT22;6808;49.444;11.034;2022-09-27T12:30:49;11.20;99.90
13472;DHT22;6808;49.444;11.034;2022-09-27T12:33:29;11.60;99.90
13472;DHT22;6808;49.444;11.034;2022-09-27T12:36:02;11.80;99.90
13472;DHT22;6808;49.444;11.034;2022-09-27T12:38:44;11.90;99.90
13472;DHT22;6808;49.444;11.034;2022-09-27T12:41:13;12.00;99.90
13472;DHT22;6808;49.444;11.034;2022-09-27T12:43:44;12.00;99.90
13472;DHT22;6808;49.444;11.034;2022-09-27T12:51:50;11.90;99.90
13472;DHT22;6808;49.444;11.034;2022-09-27T13:00:05;11.60;99.90
13472;DHT22;6808;49.444;11.034;2022-09-27T13:10:52;11.70;99.90
13472;DHT22;6808;49.444;11.034;2022-09-27T13:13:21;11.70;99.90
13472;DHT22;6808;49.444;11.034;2022-09-27T13:15:56;11.80;99.90
13472;DHT22;6808;49.444;11.034;2022-09-27T13:21:02;12.00;99.90
13472;DHT22;6808;49.444;11.034;2022-09-27T13:25:56;12.20;99.90
13472;DHT22;6808;49.444;11.034;2022-09-27T13:30:54;12.10;99.90
13472;DHT22;6808;49.444;11.034;2022-09-27T13:44:25;11.90;99.90
13472;DHT22;6808;49.444;11.034;2022-09-27T13:49:46;11.80;99.90
13472;DHT22;6808;49.444;11.034;2022-09-27T13:54:57;11.90;99.90
13472;DHT22;6808;49.444;11.034;2022-09-27T13:57:54;11.90;99.90
13472;DHT22;6808;49.444;11.034;2022-09-27T14:00:33;11.90;99.90
13472;DHT22;6808;49.444;11.034;2022-09-27T14:03:06;11.80;99.90
13472;DHT22;6808;49.444;11.034;2022-09-27T14:05:59;11.70;99.90
13472;DHT22;6808;49.444;11.034;2022-09-27T14:08:33;11.60;99.90
13472;DHT22;6808;49.444;11.034;2022-09-27T14:11:01;11.60;99.90
13472;DHT22;6808;49.444;11.034;2022-09-27T14:13:28;11.60;99.90
13472;DHT22;6808;49.444;11.034;2022-09-27T14:15:58;11.50;99.90
13472;DHT22;6808;49.444;11.034;2022-09-27T14:18:24;11.50;99.90
13472;DHT22;6808;49.444;11.034;2022-09-27T14:20:51;11.50;99.90
13472;DHT22;6808;49.444;11.034;2022-09-27T14:23:21;11.30;99.90
13472;DHT22;6808;49.444;11.034;2022-09-27T14:25:49;11.80;99.90
13472;DHT22;6808;49.444;11.034;2022-09-27T14:28:24;11.30;99.90
13472;DHT22;6808;49.444;11.034;2022-09-27T14:31:16;11.30;99.90
13472;DHT22;6808;49.444;11.034;2022-09-27T14:33:43;11.30;99.90
13472;DHT22;6808;49.444;11.034;2022-09-27T14:36:31;11.10;99.90
13472;DHT22;6808;49.444;11.034;2022-09-27T14:39:20;11.20;99.90
13472;DHT22;6808;49.444;11.034;2022-09-27T14:41:47;11.20;99.90
13472;DHT22;6808;49.444;11.034;2022-09-27T14:44:18;11.20;99.90
13472;DHT22;6808;49.444;11.034;2022-09-27T14:46:45;11.30;99.90
13472;DHT22;6808;49.444;11.034;2022-09-27T14:49:23;11.30;99.90
13472;DHT22;6808;49.444;11.034;2022-09-27T14:51:55;11.20;99.90
13472;DHT22;6808;49.444;11.034;2022-09-27T14:54:26;11.20;99.90
13472;DHT22;6808;49.444;11.034;2022-09-27T14:56:55;11.20;99.90
13472;DHT22;6808;49.444;11.034;2022-09-27T14:59:32;11.10;99.90
13472;DHT22;6808;49.444;11.034;2022-09-27T15:02:03;11.00;99.90
13472;DHT22;6808;49.444;11.034;2022-09-27T15:04:34;11.00;99.90
13472;DHT22;6808;49.444;11.034;2022-09-27T15:07:02;11.00;99.90
13472;DHT22;6808;49.444;11.034;2022-09-27T15:09:28;11.10;99.90
13472;DHT22;6808;49.444;11.034;2022-09-27T15:11:57;11.10;99.90
13472;DHT22;6808;49.444;11.034;2022-09-27T15:14:25;11.10;99.90
13472;DHT22;6808;49.444;11.034;2022-09-27T15:16:54;11.10;99.90
13472;DHT22;6808;49.444;11.034;2022-09-27T15:19:27;11.20;99.90
13472;DHT22;6808;49.444;11.034;2022-09-27T15:21:54;11.10;99.90
13472;DHT22;6808;49.444;11.034;2022-09-27T15:24:36;11.10;99.90
13472;DHT22;6808;49.444;11.034;2022-09-27T15:27:04;11.00;99.90
13472;DHT22;6808;49.444;11.034;2022-09-27T15:29:30;11.00;99.90
13472;DHT22;6808;49.444;11.034;2022-09-27T15:34:24;11.00;99.90
13472;DHT22;6808;49.444;11.034;2022-09-27T15:36:54;11.00;99.90
13472;DHT22;6808;49.444;11.034;2022-09-27T15:39:40;11.10;99.90
13472;DHT22;6808;49.444;11.034;2022-09-27T15:42:10;11.10;99.90
13472;DHT22;6808;49.444;11.034;2022-09-27T15:55:11;11.10;99.90
13472;DHT22;6808;49.444;11.034;2022-09-27T15:57:37;11.00;99.90
13472;DHT22;6808;49.444;11.034;2022-09-27T16:00:04;10.90;99.90
13472;DHT22;6808;49.444;11.034;2022-09-27T16:02:30;10.90;99.90
13472;DHT22;6808;49.444;11.034;2022-09-27T16:04:55;10.90;99.90
13472;DHT22;6808;49.444;11.034;2022-09-27T16:07:21;10.90;99.90
13472;DHT22;6808;49.444;11.034;2022-09-27T16:09:47;10.80;99.90
13472;DHT22;6808;49.444;11.034;2022-09-27T16:12:15;10.90;99.90
13472;DHT22;6808;49.444;11.034;2022-09-27T16:14:40;10.80;99.90
13472;DHT22;6808;49.444;11.034;2022-09-27T16:17:07;10.80;99.90
13472;DHT22;6808;49.444;11.034;2022-09-27T16:19:33;10.90;99.90
13472;DHT22;6808;49.444;11.034;2022-09-27T16:21:59;10.90;99.90
13472;DHT22;6808;49.444;11.034;2022-09-27T16:24:28;10.90;99.90
13472;DHT22;6808;49.444;11.034;2022-09-27T16:26:53;10.80;99.90
13472;DHT22;6808;49.444;11.034;2022-09-27T16:29:19;10.80;99.90
13472;DHT22;6808;49.444;11.034;2022-09-27T16:31:45;10.70;99.90
13472;DHT22;6808;49.444;11.034;2022-09-27T16:34:11;10.70;99.90
13472;DHT22;6808;49.444;11.034;2022-09-27T16:36:37;10.70;99.90
13472;DHT22;6808;49.444;11.034;2022-09-27T16:39:05;10.70;99.90
13472;DHT22;6808;49.444;11.034;2022-09-27T16:41:32;10.70;99.90
13472;DHT22;6808;49.444;11.034;2022-09-27T16:43:58;10.70;99.90
13472;DHT22;6808;49.444;11.034;2022-09-27T16:46:24;10.70;99.90
13472;DHT22;6808;49.444;11.034;2022-09-27T16:48:49;10.60;99.90
13472;DHT22;6808;49.444;11.034;2022-09-27T16:51:19;10.70;99.90
13472;DHT22;6808;49.444;11.034;2022-09-27T16:54:05;10.60;99.90
13472;DHT22;6808;49.444;11.034;2022-09-27T16:56:35;10.60;99.90
13472;DHT22;6808;49.444;11.034;2022-09-27T16:59:02;10.50;99.90
13472;DHT22;6808;49.444;11.034;2022-09-27T17:01:29;10.50;99.90
13472;DHT22;6808;49.444;11.034;2022-09-27T17:03:55;10.50;99.90
13472;DHT22;6808;49.444;11.034;2022-09-27T17:06:22;10.50;99.90
13472;DHT22;6808;49.444;11.034;2022-09-27T17:08:47;10.40;99.90
13472;DHT22;6808;49.444;11.034;2022-09-27T17:11:16;10.40;99.90
13472;DHT22;6808;49.444;11.034;2022-09-27T17:13:43;10.40;99.90
13472;DHT22;6808;49.444;11.034;2022-09-27T17:16:10;10.30;99.90
13472;DHT22;6808;49.444;11.034;2022-09-27T17:18:40;10.40;99.90
13472;DHT22;6808;49.444;11.034;2022-09-27T17:21:07;10.40;99.90
13472;DHT22;6808;49.444;11.034;2022-09-27T17:23:34;10.40;99.90
13472;DHT22;6808;49.444;11.034;2022-09-27T17:26:08;10.40;99.90
13472;DHT22;6808;49.444;11.034;2022-09-27T17:28:38;10.40;99.90
13472;DHT22;6808;49.444;11.034;2022-09-27T17:31:06;10.40;99.90
13472;DHT22;6808;49.444;11.034;2022-09-27T17:33:38;10.30;99.90
13472;DHT22;6808;49.444;11.034;2022-09-27T17:36:06;10.30;99.90
13472;DHT22;6808;49.444;11.034;2022-09-27T17:38:33;10.20;99.90
13472;DHT22;6808;49.444;11.034;2022-09-27T17:41:03;10.20;99.90
13472;DHT22;6808;49.444;11.034;2022-09-27T17:43:29;10.20;99.90
13472;DHT22;6808;49.444;11.034;2022-09-27T17:46:07;10.10;99.90
13472;DHT22;6808;49.444;11.034;2022-09-27T17:48:34;10.00;99.90
13472;DHT22;6808;49.444;11.034;2022-09-27T17:51:18;10.00;99.90
13472;DHT22;6808;49.444;11.034;2022-09-27T17:53:44;10.00;99.90
13472;DHT22;6808;49.444;11.034;2022-09-27T17:56:11;10.00;99.90
13472;DHT22;6808;49.444;11.034;2022-09-27T17:58:37;10.30;99.90
13472;DHT22;6808;49.444;11.034;2022-09-27T18:01:04;9.90;99.90
13472;DHT22;6808;49.444;11.034;2022-09-27T18:03:32;9.90;99.90
13472;DHT22;6808;49.444;11.034;2022-09-27T18:05:57;9.80;99.90
13472;DHT22;6808;49.444;11.034;2022-09-27T18:08:25;10.30;99.90
13472;DHT22;6808;49.444;11.034;2022-09-27T18:10:53;9.80;99.90
13472;DHT22;6808;49.444;11.034;2022-09-27T18:13:19;9.70;99.90
13472;DHT22;6808;49.444;11.034;2022-09-27T18:15:54;9.70;99.90
13472;DHT22;6808;49.444;11.034;2022-09-27T18:18:22;9.80;99.90
13472;DHT22;6808;49.444;11.034;2022-09-27T18:20:49;9.80;99.90
13472;DHT22;6808;49.444;11.034;2022-09-27T18:23:14;9.80;99.90
13472;DHT22;6808;49.444;11.034;2022-09-27T18:25:40;9.80;99.90
13472;DHT22;6808;49.444;11.034;2022-09-27T18:28:07;9.70;99.90
13472;DHT22;6808;49.444;11.034;2022-09-27T18:30:34;9.80;99.90
13472;DHT22;6808;49.444;11.034;2022-09-27T18:32:59;9.80;99.90